sensor_id;sensor_type;location;lat;lon;timestamp;P1;durP1;ratioP1;P2;durP2;ratioP2
29954;SDS011;16812;51.168;6.840;2022-12-10T00:02:22;68.77;;;27.80;;
29954;SDS011;16812;51.168;6.840;2022-12-10T00:04:49;82.97;;;29.77;;
29954;SDS011;16812;51.168;6.840;2022-12-10T00:07:16;88.37;;;35.80;;
29954;SDS011;16812;51.168;6.840;2022-12-10T00:09:43;75.27;;;31.30;;
29954;SDS011;16812;51.168;6.840;2022-12-10T00:12:12;75.47;;;31.57;;
29954;SDS011;16812;51.168;6.840;2022-12-10T00:14:39;87.20;;;32.10;;
29954;SDS011;16812;51.168;6.840;2022-12-10T00:17:06;84.53;;;33.87;;
29954;SDS011;16812;51.168;6.840;2022-12-10T00:19:38;84.33;;;31.53;;
29954;SDS011;16812;51.168;6.840;2022-12-10T00:22:05;79.40;;;32.00;;
29954;SDS011;16812;51.168;6.840;2022-12-10T00:24:32;87.23;;;33.23;;
29954;SDS011;16812;51.168;6.840;2022-12-10T00:26:59;85.63;;;32.30;;
29954;SDS011;16812;51.168;6.840;2022-12-10T00:29:28;82.60;;;30.83;;
29954;SDS011;16812;51.168;6.840;2022-12-10T00:31:55;80.03;;;33.23;;
29954;SDS011;16812;51.168;6.840;2022-12-10T00:34:22;95.87;;;35.40;;
29954;SDS011;16812;51.168;6.840;2022-12-10T00:36:49;76.93;;;31.17;;
29954;SDS011;16812;51.168;6.840;2022-12-10T00:39:17;82.90;;;31.97;;
29954;SDS011;16812;51.168;6.840;2022-12-10T00:41:44;93.90;;;34.33;;
29954;SDS011;16812;51.168;6.840;2022-12-10T00:44:12;99.83;;;33.90;;
29954;SDS011;16812;51.168;6.840;2022-12-10T00:46:40;91.77;;;34.27;;
29954;SDS011;16812;51.168;6.840;2022-12-10T00:49:07;88.70;;;32.93;;
29954;SDS011;16812;51.168;6.840;2022-12-10T00:51:35;101.57;;;34.20;;
29954;SDS011;16812;51.168;6.840;2022-12-10T00:54:02;83.53;;;32.03;;
29954;SDS011;16812;51.168;6.840;2022-12-10T00:56:30;85.80;;;31.40;;
29954;SDS011;16812;51.168;6.840;2022-12-10T00:58:57;82.23;;;31.57;;
29954;SDS011;16812;51.168;6.840;2022-12-10T01:01:25;91.93;;;32.50;;
29954;SDS011;16812;51.168;6.840;2022-12-10T01:03:55;88.13;;;32.43;;
29954;SDS011;16812;51.168;6.840;2022-12-10T01:06:22;85.83;;;32.20;;
29954;SDS011;16812;51.168;6.840;2022-12-10T01:08:51;85.27;;;32.73;;
29954;SDS011;16812;51.168;6.840;2022-12-10T01:11:19;89.73;;;34.53;;
29954;SDS011;16812;51.168;6.840;2022-12-10T01:13:46;96.20;;;33.90;;
29954;SDS011;16812;51.168;6.840;2022-12-10T01:16:16;96.43;;;35.03;;
29954;SDS011;16812;51.168;6.840;2022-12-10T01:18:44;116.00;;;38.27;;
29954;SDS011;16812;51.168;6.840;2022-12-10T01:21:14;110.10;;;35.13;;
29954;SDS011;16812;51.168;6.840;2022-12-10T01:23:42;103.10;;;34.67;;
29954;SDS011;16812;51.168;6.840;2022-12-10T01:26:10;84.67;;;32.50;;
29954;SDS011;16812;51.168;6.840;2022-12-10T01:28:38;88.47;;;31.33;;
29954;SDS011;16812;51.168;6.840;2022-12-10T01:31:06;92.13;;;35.33;;
29954;SDS011;16812;51.168;6.840;2022-12-10T01:33:36;101.37;;;37.40;;
29954;SDS011;16812;51.168;6.840;2022-12-10T01:36:03;103.20;;;34.17;;
29954;SDS011;16812;51.168;6.840;2022-12-10T01:38:32;83.33;;;31.60;;
29954;SDS011;16812;51.168;6.840;2022-12-10T01:40:59;106.20;;;39.70;;
29954;SDS011;16812;51.168;6.840;2022-12-10T01:43:27;89.40;;;33.97;;
29954;SDS011;16812;51.168;6.840;2022-12-10T01:45:54;105.63;;;36.07;;
29954;SDS011;16812;51.168;6.840;2022-12-10T01:48:21;90.87;;;32.83;;
29954;SDS011;16812;51.168;6.840;2022-12-10T01:50:49;95.47;;;33.20;;
29954;SDS011;16812;51.168;6.840;2022-12-10T01:53:16;84.40;;;30.37;;
29954;SDS011;16812;51.168;6.840;2022-12-10T01:55:46;99.97;;;35.20;;
29954;SDS011;16812;51.168;6.840;2022-12-10T01:58:14;101.73;;;35.37;;
29954;SDS011;16812;51.168;6.840;2022-12-10T02:00:45;103.37;;;35.87;;
29954;SDS011;16812;51.168;6.840;2022-12-10T02:03:17;114.37;;;36.77;;
29954;SDS011;16812;51.168;6.840;2022-12-10T02:05:47;96.20;;;32.87;;
29954;SDS011;16812;51.168;6.840;2022-12-10T02:08:18;93.67;;;35.77;;
29954;SDS011;16812;51.168;6.840;2022-12-10T02:10:51;94.77;;;34.07;;
29954;SDS011;16812;51.168;6.840;2022-12-10T02:13:24;108.60;;;38.80;;
29954;SDS011;16812;51.168;6.840;2022-12-10T02:15:55;97.27;;;33.20;;
29954;SDS011;16812;51.168;6.840;2022-12-10T02:18:25;100.33;;;33.93;;
29954;SDS011;16812;51.168;6.840;2022-12-10T02:20:54;89.13;;;34.27;;
29954;SDS011;16812;51.168;6.840;2022-12-10T02:23:24;101.47;;;35.37;;
29954;SDS011;16812;51.168;6.840;2022-12-10T02:25:54;116.50;;;36.07;;
29954;SDS011;16812;51.168;6.840;2022-12-10T02:28:25;108.20;;;36.03;;
29954;SDS011;16812;51.168;6.840;2022-12-10T02:30:58;102.97;;;34.30;;
29954;SDS011;16812;51.168;6.840;2022-12-10T02:33:30;108.30;;;34.27;;
29954;SDS011;16812;51.168;6.840;2022-12-10T02:35:58;95.93;;;33.80;;
29954;SDS011;16812;51.168;6.840;2022-12-10T02:38:26;95.23;;;32.43;;
29954;SDS011;16812;51.168;6.840;2022-12-10T02:40:58;108.33;;;34.00;;
29954;SDS011;16812;51.168;6.840;2022-12-10T02:43:26;90.53;;;34.67;;
29954;SDS011;16812;51.168;6.840;2022-12-10T02:45:54;106.33;;;36.17;;
29954;SDS011;16812;51.168;6.840;2022-12-10T02:48:23;92.93;;;31.87;;
29954;SDS011;16812;51.168;6.840;2022-12-10T02:50:50;105.27;;;35.27;;
29954;SDS011;16812;51.168;6.840;2022-12-10T02:53:18;95.47;;;33.33;;
29954;SDS011;16812;51.168;6.840;2022-12-10T02:55:47;102.23;;;33.70;;
29954;SDS011;16812;51.168;6.840;2022-12-10T02:58:21;85.80;;;31.60;;
29954;SDS011;16812;51.168;6.840;2022-12-10T03:00:52;95.33;;;34.07;;
29954;SDS011;16812;51.168;6.840;2022-12-10T03:03:28;102.17;;;32.00;;
29954;SDS011;16812;51.168;6.840;2022-12-10T03:05:59;100.33;;;34.53;;
29954;SDS011;16812;51.168;6.840;2022-12-10T03:08:31;102.50;;;36.70;;
29954;SDS011;16812;51.168;6.840;2022-12-10T03:11:01;111.23;;;36.50;;
29954;SDS011;16812;51.168;6.840;2022-12-10T03:13:31;102.30;;;36.50;;
29954;SDS011;16812;51.168;6.840;2022-12-10T03:15:59;95.27;;;35.43;;
29954;SDS011;16812;51.168;6.840;2022-12-10T03:18:29;91.03;;;35.73;;
29954;SDS011;16812;51.168;6.840;2022-12-10T03:20:58;99.60;;;36.63;;
29954;SDS011;16812;51.168;6.840;2022-12-10T03:23:26;106.50;;;36.00;;
29954;SDS011;16812;51.168;6.840;2022-12-10T03:25:54;112.17;;;39.40;;
29954;SDS011;16812;51.168;6.840;2022-12-10T03:28:22;108.20;;;38.67;;
29954;SDS011;16812;51.168;6.840;2022-12-10T03:30:50;98.33;;;38.43;;
29954;SDS011;16812;51.168;6.840;2022-12-10T03:33:18;101.13;;;35.30;;
29954;SDS011;16812;51.168;6.840;2022-12-10T03:35:47;100.77;;;32.80;;
29954;SDS011;16812;51.168;6.840;2022-12-10T03:38:14;88.23;;;35.57;;
29954;SDS011;16812;51.168;6.840;2022-12-10T03:40:42;95.13;;;35.67;;
29954;SDS011;16812;51.168;6.840;2022-12-10T03:43:11;102.83;;;35.10;;
29954;SDS011;16812;51.168;6.840;2022-12-10T03:45:38;98.50;;;36.00;;
29954;SDS011;16812;51.168;6.840;2022-12-10T03:48:06;94.70;;;34.03;;
29954;SDS011;16812;51.168;6.840;2022-12-10T03:50:33;88.43;;;32.67;;
29954;SDS011;16812;51.168;6.840;2022-12-10T03:53:01;88.83;;;37.47;;
29954;SDS011;16812;51.168;6.840;2022-12-10T03:55:28;81.00;;;32.73;;
29954;SDS011;16812;51.168;6.840;2022-12-10T03:57:56;86.27;;;33.63;;
29954;SDS011;16812;51.168;6.840;2022-12-10T04:00:23;77.53;;;27.97;;
29954;SDS011;16812;51.168;6.840;2022-12-10T04:02:50;74.17;;;30.60;;
29954;SDS011;16812;51.168;6.840;2022-12-10T04:05:17;78.63;;;31.10;;
29954;SDS011;16812;51.168;6.840;2022-12-10T04:07:44;69.30;;;30.20;;
29954;SDS011;16812;51.168;6.840;2022-12-10T04:10:13;67.13;;;27.70;;
29954;SDS011;16812;51.168;6.840;2022-12-10T04:12:40;76.47;;;30.47;;
29954;SDS011;16812;51.168;6.840;2022-12-10T04:15:07;68.60;;;29.30;;
29954;SDS011;16812;51.168;6.840;2022-12-10T04:17:34;69.80;;;27.00;;
29954;SDS011;16812;51.168;6.840;2022-12-10T04:20:02;69.80;;;27.93;;
29954;SDS011;16812;51.168;6.840;2022-12-10T04:22:30;83.20;;;32.70;;
29954;SDS011;16812;51.168;6.840;2022-12-10T04:24:57;83.17;;;30.13;;
29954;SDS011;16812;51.168;6.840;2022-12-10T04:27:26;71.17;;;28.23;;
29954;SDS011;16812;51.168;6.840;2022-12-10T04:29:54;74.87;;;29.20;;
29954;SDS011;16812;51.168;6.840;2022-12-10T04:32:22;80.83;;;31.73;;
29954;SDS011;16812;51.168;6.840;2022-12-10T04:34:49;83.33;;;31.13;;
29954;SDS011;16812;51.168;6.840;2022-12-10T04:37:17;72.03;;;31.63;;
29954;SDS011;16812;51.168;6.840;2022-12-10T04:39:44;73.13;;;29.57;;
29954;SDS011;16812;51.168;6.840;2022-12-10T04:42:12;67.23;;;28.93;;
29954;SDS011;16812;51.168;6.840;2022-12-10T04:44:40;72.60;;;31.00;;
29954;SDS011;16812;51.168;6.840;2022-12-10T04:47:08;69.53;;;29.87;;
29954;SDS011;16812;51.168;6.840;2022-12-10T04:49:36;73.07;;;29.40;;
29954;SDS011;16812;51.168;6.840;2022-12-10T04:52:03;66.67;;;27.80;;
29954;SDS011;16812;51.168;6.840;2022-12-10T04:54:31;68.27;;;29.63;;
29954;SDS011;16812;51.168;6.840;2022-12-10T04:57:04;86.67;;;31.97;;
29954;SDS011;16812;51.168;6.840;2022-12-10T04:59:31;69.70;;;29.30;;
29954;SDS011;16812;51.168;6.840;2022-12-10T05:02:00;73.33;;;29.83;;
29954;SDS011;16812;51.168;6.840;2022-12-10T05:04:27;67.23;;;30.63;;
29954;SDS011;16812;51.168;6.840;2022-12-10T05:06:54;61.27;;;27.87;;
29954;SDS011;16812;51.168;6.840;2022-12-10T05:09:21;64.47;;;28.23;;
29954;SDS011;16812;51.168;6.840;2022-12-10T05:11:48;65.23;;;28.63;;
29954;SDS011;16812;51.168;6.840;2022-12-10T05:14:15;62.70;;;27.33;;
29954;SDS011;16812;51.168;6.840;2022-12-10T05:16:42;68.73;;;26.43;;
29954;SDS011;16812;51.168;6.840;2022-12-10T05:19:11;63.03;;;27.93;;
29954;SDS011;16812;51.168;6.840;2022-12-10T05:21:38;63.77;;;26.90;;
29954;SDS011;16812;51.168;6.840;2022-12-10T05:24:05;54.17;;;24.83;;
29954;SDS011;16812;51.168;6.840;2022-12-10T05:26:32;57.07;;;23.10;;
29954;SDS011;16812;51.168;6.840;2022-12-10T05:28:59;63.27;;;26.40;;
29954;SDS011;16812;51.168;6.840;2022-12-10T05:31:28;60.87;;;25.60;;
29954;SDS011;16812;51.168;6.840;2022-12-10T05:33:56;59.33;;;25.67;;
29954;SDS011;16812;51.168;6.840;2022-12-10T05:36:25;61.60;;;26.00;;
29954;SDS011;16812;51.168;6.840;2022-12-10T05:38:53;61.63;;;24.70;;
29954;SDS011;16812;51.168;6.840;2022-12-10T05:41:25;68.40;;;26.50;;
29954;SDS011;16812;51.168;6.840;2022-12-10T05:43:53;62.43;;;25.97;;
29954;SDS011;16812;51.168;6.840;2022-12-10T05:46:21;65.63;;;26.60;;
29954;SDS011;16812;51.168;6.840;2022-12-10T05:48:48;66.20;;;27.57;;
29954;SDS011;16812;51.168;6.840;2022-12-10T05:51:16;62.13;;;25.80;;
29954;SDS011;16812;51.168;6.840;2022-12-10T05:53:45;56.03;;;26.23;;
29954;SDS011;16812;51.168;6.840;2022-12-10T05:56:13;59.37;;;25.80;;
29954;SDS011;16812;51.168;6.840;2022-12-10T05:58:41;60.03;;;26.60;;
29954;SDS011;16812;51.168;6.840;2022-12-10T06:01:09;67.13;;;28.50;;
29954;SDS011;16812;51.168;6.840;2022-12-10T06:03:37;67.30;;;27.20;;
29954;SDS011;16812;51.168;6.840;2022-12-10T06:06:04;59.33;;;25.37;;
29954;SDS011;16812;51.168;6.840;2022-12-10T06:08:32;62.00;;;26.60;;
29954;SDS011;16812;51.168;6.840;2022-12-10T06:11:01;49.63;;;23.93;;
29954;SDS011;16812;51.168;6.840;2022-12-10T06:13:28;62.03;;;26.90;;
29954;SDS011;16812;51.168;6.840;2022-12-10T06:15:55;64.20;;;27.03;;
29954;SDS011;16812;51.168;6.840;2022-12-10T06:18:23;65.50;;;26.53;;
29954;SDS011;16812;51.168;6.840;2022-12-10T06:20:50;63.17;;;29.80;;
29954;SDS011;16812;51.168;6.840;2022-12-10T06:23:17;67.27;;;28.53;;
29954;SDS011;16812;51.168;6.840;2022-12-10T06:25:44;64.33;;;27.63;;
29954;SDS011;16812;51.168;6.840;2022-12-10T06:28:13;59.57;;;27.60;;
29954;SDS011;16812;51.168;6.840;2022-12-10T06:30:40;63.37;;;27.50;;
29954;SDS011;16812;51.168;6.840;2022-12-10T06:33:07;69.47;;;29.77;;
29954;SDS011;16812;51.168;6.840;2022-12-10T06:35:34;67.77;;;31.03;;
29954;SDS011;16812;51.168;6.840;2022-12-10T06:38:01;62.80;;;27.93;;
29954;SDS011;16812;51.168;6.840;2022-12-10T06:40:28;67.97;;;27.87;;
29954;SDS011;16812;51.168;6.840;2022-12-10T06:42:55;58.37;;;25.27;;
29954;SDS011;16812;51.168;6.840;2022-12-10T06:45:24;69.77;;;29.33;;
29954;SDS011;16812;51.168;6.840;2022-12-10T06:47:51;73.33;;;28.17;;
29954;SDS011;16812;51.168;6.840;2022-12-10T06:50:18;73.50;;;28.47;;
29954;SDS011;16812;51.168;6.840;2022-12-10T06:52:45;74.17;;;32.60;;
29954;SDS011;16812;51.168;6.840;2022-12-10T06:55:20;73.27;;;32.10;;
29954;SDS011;16812;51.168;6.840;2022-12-10T06:57:47;74.60;;;32.00;;
29954;SDS011;16812;51.168;6.840;2022-12-10T07:00:17;84.83;;;36.47;;
29954;SDS011;16812;51.168;6.840;2022-12-10T07:02:48;78.13;;;33.13;;
29954;SDS011;16812;51.168;6.840;2022-12-10T07:05:17;78.70;;;35.87;;
29954;SDS011;16812;51.168;6.840;2022-12-10T07:07:44;84.90;;;33.90;;
29954;SDS011;16812;51.168;6.840;2022-12-10T07:10:12;98.47;;;35.60;;
29954;SDS011;16812;51.168;6.840;2022-12-10T07:12:39;95.40;;;40.53;;
29954;SDS011;16812;51.168;6.840;2022-12-10T07:15:07;98.00;;;37.30;;
29954;SDS011;16812;51.168;6.840;2022-12-10T07:17:34;89.30;;;36.40;;
29954;SDS011;16812;51.168;6.840;2022-12-10T07:20:03;94.70;;;38.43;;
29954;SDS011;16812;51.168;6.840;2022-12-10T07:22:30;96.70;;;37.83;;
29954;SDS011;16812;51.168;6.840;2022-12-10T07:24:57;98.80;;;34.43;;
29954;SDS011;16812;51.168;6.840;2022-12-10T07:27:24;88.03;;;35.07;;
29954;SDS011;16812;51.168;6.840;2022-12-10T07:29:51;92.53;;;35.20;;
29954;SDS011;16812;51.168;6.840;2022-12-10T07:32:19;99.30;;;38.10;;
29954;SDS011;16812;51.168;6.840;2022-12-10T07:34:46;84.60;;;35.10;;
29954;SDS011;16812;51.168;6.840;2022-12-10T07:37:14;82.97;;;36.30;;
29954;SDS011;16812;51.168;6.840;2022-12-10T07:39:41;99.73;;;37.10;;
29954;SDS011;16812;51.168;6.840;2022-12-10T07:42:08;86.47;;;33.23;;
29954;SDS011;16812;51.168;6.840;2022-12-10T07:44:37;91.20;;;35.50;;
29954;SDS011;16812;51.168;6.840;2022-12-10T07:47:04;93.50;;;37.53;;
29954;SDS011;16812;51.168;6.840;2022-12-10T07:49:31;95.03;;;38.37;;
29954;SDS011;16812;51.168;6.840;2022-12-10T07:51:58;92.90;;;37.53;;
29954;SDS011;16812;51.168;6.840;2022-12-10T07:54:27;106.77;;;38.87;;
29954;SDS011;16812;51.168;6.840;2022-12-10T07:56:54;100.87;;;38.50;;
29954;SDS011;16812;51.168;6.840;2022-12-10T07:59:21;95.90;;;35.37;;
29954;SDS011;16812;51.168;6.840;2022-12-10T08:01:48;103.13;;;39.57;;
29954;SDS011;16812;51.168;6.840;2022-12-10T08:04:15;108.80;;;38.50;;
29954;SDS011;16812;51.168;6.840;2022-12-10T08:06:42;123.20;;;41.00;;
29954;SDS011;16812;51.168;6.840;2022-12-10T08:09:10;106.87;;;39.30;;
29954;SDS011;16812;51.168;6.840;2022-12-10T08:11:38;103.60;;;40.30;;
29954;SDS011;16812;51.168;6.840;2022-12-10T08:14:05;108.33;;;39.83;;
29954;SDS011;16812;51.168;6.840;2022-12-10T08:16:32;102.77;;;36.87;;
29954;SDS011;16812;51.168;6.840;2022-12-10T08:19:00;107.57;;;40.33;;
29954;SDS011;16812;51.168;6.840;2022-12-10T08:21:28;106.73;;;37.57;;
29954;SDS011;16812;51.168;6.840;2022-12-10T08:23:55;106.60;;;41.07;;
29954;SDS011;16812;51.168;6.840;2022-12-10T08:26:23;107.33;;;37.57;;
29954;SDS011;16812;51.168;6.840;2022-12-10T08:28:54;98.43;;;37.30;;
29954;SDS011;16812;51.168;6.840;2022-12-10T08:31:22;117.13;;;41.00;;
29954;SDS011;16812;51.168;6.840;2022-12-10T08:33:49;97.37;;;36.37;;
29954;SDS011;16812;51.168;6.840;2022-12-10T08:36:16;94.20;;;36.03;;
29954;SDS011;16812;51.168;6.840;2022-12-10T08:38:44;106.47;;;36.43;;
29954;SDS011;16812;51.168;6.840;2022-12-10T08:41:12;93.23;;;35.30;;
29954;SDS011;16812;51.168;6.840;2022-12-10T08:43:39;100.37;;;37.00;;
29954;SDS011;16812;51.168;6.840;2022-12-10T08:46:08;84.90;;;35.73;;
29954;SDS011;16812;51.168;6.840;2022-12-10T08:48:36;84.70;;;34.90;;
29954;SDS011;16812;51.168;6.840;2022-12-10T08:51:04;85.07;;;33.03;;
29954;SDS011;16812;51.168;6.840;2022-12-10T08:53:31;92.03;;;35.60;;
29954;SDS011;16812;51.168;6.840;2022-12-10T08:55:58;83.23;;;33.57;;
29954;SDS011;16812;51.168;6.840;2022-12-10T08:58:26;79.00;;;31.53;;
29954;SDS011;16812;51.168;6.840;2022-12-10T09:00:53;97.17;;;32.97;;
29954;SDS011;16812;51.168;6.840;2022-12-10T09:03:21;90.13;;;34.10;;
29954;SDS011;16812;51.168;6.840;2022-12-10T09:05:48;93.93;;;35.70;;
29954;SDS011;16812;51.168;6.840;2022-12-10T09:08:16;78.27;;;32.93;;
29954;SDS011;16812;51.168;6.840;2022-12-10T09:10:43;81.53;;;33.87;;
29954;SDS011;16812;51.168;6.840;2022-12-10T09:13:10;92.33;;;34.87;;
29954;SDS011;16812;51.168;6.840;2022-12-10T09:15:37;85.53;;;33.90;;
29954;SDS011;16812;51.168;6.840;2022-12-10T09:18:04;85.23;;;31.80;;
29954;SDS011;16812;51.168;6.840;2022-12-10T09:20:33;74.00;;;30.87;;
29954;SDS011;16812;51.168;6.840;2022-12-10T09:23:00;75.60;;;33.17;;
29954;SDS011;16812;51.168;6.840;2022-12-10T09:25:27;88.50;;;34.80;;
29954;SDS011;16812;51.168;6.840;2022-12-10T09:27:54;88.50;;;33.47;;
29954;SDS011;16812;51.168;6.840;2022-12-10T09:30:21;82.17;;;32.87;;
29954;SDS011;16812;51.168;6.840;2022-12-10T09:32:48;80.67;;;31.30;;
29954;SDS011;16812;51.168;6.840;2022-12-10T09:35:15;87.30;;;32.80;;
29954;SDS011;16812;51.168;6.840;2022-12-10T09:37:44;85.30;;;34.13;;
29954;SDS011;16812;51.168;6.840;2022-12-10T09:40:13;78.80;;;34.50;;
29954;SDS011;16812;51.168;6.840;2022-12-10T09:42:43;77.07;;;33.37;;
29954;SDS011;16812;51.168;6.840;2022-12-10T09:45:17;74.10;;;32.43;;
29954;SDS011;16812;51.168;6.840;2022-12-10T09:47:46;84.27;;;32.10;;
29954;SDS011;16812;51.168;6.840;2022-12-10T09:50:18;80.67;;;31.40;;
29954;SDS011;16812;51.168;6.840;2022-12-10T09:52:48;89.13;;;34.60;;
29954;SDS011;16812;51.168;6.840;2022-12-10T09:55:16;79.53;;;34.40;;
29954;SDS011;16812;51.168;6.840;2022-12-10T09:57:45;80.43;;;30.70;;
29954;SDS011;16812;51.168;6.840;2022-12-10T10:00:18;87.33;;;33.70;;
29954;SDS011;16812;51.168;6.840;2022-12-10T10:02:45;80.20;;;30.70;;
29954;SDS011;16812;51.168;6.840;2022-12-10T10:05:13;81.10;;;31.10;;
29954;SDS011;16812;51.168;6.840;2022-12-10T10:07:43;74.73;;;28.33;;
29954;SDS011;16812;51.168;6.840;2022-12-10T10:10:17;61.63;;;26.77;;
29954;SDS011;16812;51.168;6.840;2022-12-10T10:12:46;69.87;;;26.63;;
29954;SDS011;16812;51.168;6.840;2022-12-10T10:15:14;62.67;;;27.57;;
29954;SDS011;16812;51.168;6.840;2022-12-10T10:17:42;73.77;;;28.97;;
29954;SDS011;16812;51.168;6.840;2022-12-10T10:20:10;75.43;;;30.90;;
29954;SDS011;16812;51.168;6.840;2022-12-10T10:22:37;73.73;;;29.50;;
29954;SDS011;16812;51.168;6.840;2022-12-10T10:25:05;76.33;;;30.50;;
29954;SDS011;16812;51.168;6.840;2022-12-10T10:27:34;79.07;;;30.40;;
29954;SDS011;16812;51.168;6.840;2022-12-10T10:30:03;66.70;;;28.80;;
29954;SDS011;16812;51.168;6.840;2022-12-10T10:32:43;74.43;;;32.27;;
29954;SDS011;16812;51.168;6.840;2022-12-10T10:35:18;77.17;;;31.03;;
29954;SDS011;16812;51.168;6.840;2022-12-10T10:37:45;74.57;;;29.10;;
29954;SDS011;16812;51.168;6.840;2022-12-10T10:40:20;70.67;;;30.43;;
29954;SDS011;16812;51.168;6.840;2022-12-10T10:42:51;68.00;;;30.53;;
29954;SDS011;16812;51.168;6.840;2022-12-10T10:45:32;79.50;;;30.90;;
29954;SDS011;16812;51.168;6.840;2022-12-10T10:48:04;70.50;;;28.90;;
29954;SDS011;16812;51.168;6.840;2022-12-10T10:50:32;76.60;;;31.50;;
29954;SDS011;16812;51.168;6.840;2022-12-10T10:53:18;71.60;;;29.23;;
29954;SDS011;16812;51.168;6.840;2022-12-10T10:55:45;78.07;;;30.10;;
29954;SDS011;16812;51.168;6.840;2022-12-10T10:58:16;76.80;;;31.07;;
29954;SDS011;16812;51.168;6.840;2022-12-10T11:00:52;77.83;;;29.60;;
29954;SDS011;16812;51.168;6.840;2022-12-10T11:03:20;70.23;;;27.60;;
29954;SDS011;16812;51.168;6.840;2022-12-10T11:05:47;63.10;;;26.73;;
29954;SDS011;16812;51.168;6.840;2022-12-10T11:08:15;70.00;;;26.67;;
29954;SDS011;16812;51.168;6.840;2022-12-10T11:10:46;65.43;;;28.67;;
29954;SDS011;16812;51.168;6.840;2022-12-10T11:13:20;67.90;;;30.30;;
29954;SDS011;16812;51.168;6.840;2022-12-10T11:15:54;67.50;;;27.10;;
29954;SDS011;16812;51.168;6.840;2022-12-10T11:18:24;70.67;;;29.80;;
29954;SDS011;16812;51.168;6.840;2022-12-10T11:20:59;77.07;;;29.17;;
29954;SDS011;16812;51.168;6.840;2022-12-10T11:23:26;72.63;;;30.40;;
29954;SDS011;16812;51.168;6.840;2022-12-10T11:25:55;69.17;;;29.70;;
29954;SDS011;16812;51.168;6.840;2022-12-10T11:28:31;76.97;;;28.20;;
29954;SDS011;16812;51.168;6.840;2022-12-10T11:31:05;76.27;;;31.10;;
29954;SDS011;16812;51.168;6.840;2022-12-10T11:33:40;70.70;;;28.27;;
29954;SDS011;16812;51.168;6.840;2022-12-10T11:36:13;60.53;;;27.83;;
29954;SDS011;16812;51.168;6.840;2022-12-10T11:38:45;63.50;;;28.57;;
29954;SDS011;16812;51.168;6.840;2022-12-10T11:41:15;67.63;;;29.57;;
29954;SDS011;16812;51.168;6.840;2022-12-10T11:43:53;73.70;;;31.57;;
29954;SDS011;16812;51.168;6.840;2022-12-10T11:46:28;89.17;;;30.83;;
29954;SDS011;16812;51.168;6.840;2022-12-10T11:49:04;72.37;;;29.60;;
29954;SDS011;16812;51.168;6.840;2022-12-10T11:51:37;68.53;;;29.63;;
29954;SDS011;16812;51.168;6.840;2022-12-10T11:54:11;74.60;;;29.97;;
29954;SDS011;16812;51.168;6.840;2022-12-10T11:56:42;69.87;;;30.17;;
29954;SDS011;16812;51.168;6.840;2022-12-10T11:59:15;71.13;;;30.57;;
29954;SDS011;16812;51.168;6.840;2022-12-10T12:01:47;64.23;;;28.77;;
29954;SDS011;16812;51.168;6.840;2022-12-10T12:04:20;67.17;;;27.83;;
29954;SDS011;16812;51.168;6.840;2022-12-10T12:06:52;61.17;;;26.73;;
29954;SDS011;16812;51.168;6.840;2022-12-10T12:09:26;73.03;;;29.20;;
29954;SDS011;16812;51.168;6.840;2022-12-10T12:12:02;66.80;;;26.87;;
29954;SDS011;16812;51.168;6.840;2022-12-10T12:14:33;59.23;;;25.77;;
29954;SDS011;16812;51.168;6.840;2022-12-10T12:17:03;65.80;;;27.00;;
29954;SDS011;16812;51.168;6.840;2022-12-10T12:19:34;70.37;;;26.47;;
29954;SDS011;16812;51.168;6.840;2022-12-10T12:22:04;76.77;;;28.17;;
29954;SDS011;16812;51.168;6.840;2022-12-10T12:24:34;66.13;;;25.30;;
29954;SDS011;16812;51.168;6.840;2022-12-10T12:27:04;66.57;;;26.77;;
29954;SDS011;16812;51.168;6.840;2022-12-10T12:29:37;64.10;;;26.07;;
29954;SDS011;16812;51.168;6.840;2022-12-10T12:32:09;56.10;;;26.53;;
29954;SDS011;16812;51.168;6.840;2022-12-10T12:34:42;64.20;;;27.50;;
29954;SDS011;16812;51.168;6.840;2022-12-10T12:37:12;67.90;;;25.27;;
29954;SDS011;16812;51.168;6.840;2022-12-10T12:39:43;50.97;;;24.70;;
29954;SDS011;16812;51.168;6.840;2022-12-10T12:42:13;70.53;;;27.73;;
29954;SDS011;16812;51.168;6.840;2022-12-10T12:44:46;57.73;;;25.97;;
29954;SDS011;16812;51.168;6.840;2022-12-10T12:47:16;56.73;;;25.20;;
29954;SDS011;16812;51.168;6.840;2022-12-10T12:49:46;53.53;;;24.07;;
29954;SDS011;16812;51.168;6.840;2022-12-10T12:52:18;60.07;;;25.73;;
29954;SDS011;16812;51.168;6.840;2022-12-10T12:54:47;63.23;;;27.57;;
29954;SDS011;16812;51.168;6.840;2022-12-10T12:57:18;59.20;;;25.90;;
29954;SDS011;16812;51.168;6.840;2022-12-10T12:59:52;63.00;;;29.37;;
29954;SDS011;16812;51.168;6.840;2022-12-10T13:02:25;58.87;;;26.10;;
29954;SDS011;16812;51.168;6.840;2022-12-10T13:04:53;63.67;;;27.17;;
29954;SDS011;16812;51.168;6.840;2022-12-10T13:07:28;62.73;;;26.83;;
29954;SDS011;16812;51.168;6.840;2022-12-10T13:10:09;78.50;;;28.73;;
29954;SDS011;16812;51.168;6.840;2022-12-10T13:12:45;67.30;;;27.30;;
29954;SDS011;16812;51.168;6.840;2022-12-10T13:15:20;63.27;;;25.57;;
29954;SDS011;16812;51.168;6.840;2022-12-10T13:18:01;61.87;;;25.80;;
29954;SDS011;16812;51.168;6.840;2022-12-10T13:20:30;63.63;;;27.87;;
29954;SDS011;16812;51.168;6.840;2022-12-10T13:22:58;72.57;;;27.00;;
29954;SDS011;16812;51.168;6.840;2022-12-10T13:25:37;57.57;;;26.20;;
29954;SDS011;16812;51.168;6.840;2022-12-10T13:28:17;60.33;;;25.47;;
29954;SDS011;16812;51.168;6.840;2022-12-10T13:33:32;59.30;;;24.33;;
29954;SDS011;16812;51.168;6.840;2022-12-10T13:36:10;66.83;;;27.83;;
29954;SDS011;16812;51.168;6.840;2022-12-10T13:38:57;66.20;;;27.60;;
29954;SDS011;16812;51.168;6.840;2022-12-10T13:41:24;69.33;;;27.60;;
29954;SDS011;16812;51.168;6.840;2022-12-10T13:43:53;63.70;;;28.13;;
29954;SDS011;16812;51.168;6.840;2022-12-10T13:46:21;57.83;;;24.03;;
29954;SDS011;16812;51.168;6.840;2022-12-10T13:48:50;68.07;;;28.40;;
29954;SDS011;16812;51.168;6.840;2022-12-10T13:54:06;65.43;;;27.70;;
29954;SDS011;16812;51.168;6.840;2022-12-10T13:56:45;64.97;;;27.97;;
29954;SDS011;16812;51.168;6.840;2022-12-10T13:59:17;62.77;;;28.40;;
29954;SDS011;16812;51.168;6.840;2022-12-10T14:01:46;69.93;;;28.80;;
29954;SDS011;16812;51.168;6.840;2022-12-10T14:04:30;57.63;;;26.57;;
29954;SDS011;16812;51.168;6.840;2022-12-10T14:06:58;66.10;;;26.93;;
29954;SDS011;16812;51.168;6.840;2022-12-10T14:09:27;81.67;;;27.83;;
29954;SDS011;16812;51.168;6.840;2022-12-10T14:11:57;56.77;;;26.60;;
29954;SDS011;16812;51.168;6.840;2022-12-10T14:14:25;60.53;;;28.13;;
29954;SDS011;16812;51.168;6.840;2022-12-10T14:16:55;61.33;;;27.00;;
29954;SDS011;16812;51.168;6.840;2022-12-10T14:19:27;67.07;;;27.00;;
29954;SDS011;16812;51.168;6.840;2022-12-10T14:21:56;62.47;;;27.73;;
29954;SDS011;16812;51.168;6.840;2022-12-10T14:24:25;56.30;;;24.93;;
29954;SDS011;16812;51.168;6.840;2022-12-10T14:26:55;57.03;;;24.87;;
29954;SDS011;16812;51.168;6.840;2022-12-10T14:29:23;64.67;;;27.70;;
29954;SDS011;16812;51.168;6.840;2022-12-10T14:31:54;56.50;;;26.10;;
29954;SDS011;16812;51.168;6.840;2022-12-10T14:34:24;65.23;;;28.50;;
29954;SDS011;16812;51.168;6.840;2022-12-10T14:36:52;65.90;;;27.57;;
29954;SDS011;16812;51.168;6.840;2022-12-10T14:39:24;69.57;;;27.83;;